GEC8460 EDDF-VHHH
Flight info
| Callsign | GEC8460 |
|---|---|
| Flight time | N/A |
| Altitude | 31000 |
| Route | SULUS4D/07C SULUS Z650 VEMUT/N0470F390 DCT PEPIK DCT NORAH DCT BUDOP DCT LUGEB DCT UDROS UM859 RUVOM/N0485F410 UM859 KARDE UL851 TBN UM11 REBLO M11 LUSAL N199 RASAM L88 METKA B476 DARVA/K0883F410 T898 OGOLI N193 SR L163 TISIB L141 KAMUD/K0880S1250 W186 SADAN Y1 OMBON W245 OVRAL B330 KWE W181 DUDIT A599 POU R473 SIERA |
| Aircraft | B77L/H-SDE2E3FGHIJ1J3J4J5M1P2RWXYZ/LB1D1 |
Departure
| Time | 2026-05-06 08:26 |
|---|---|
| Airport | Frankfurt Main Airport (EDDF) |
Arrival
| Time | N/A |
|---|---|
| Airport | Hong Kong International Airport (VHHH) |
| Time | Latitude | Longitude | Altitude | Speed | Heading |
|---|---|---|---|---|---|
| 2026-05-06 07:52 | 50.04066 | 8.54508 | 362 ft | 0 kts | 249° |
| 2026-05-06 08:15 | 50.04069 | 8.54517 | 362 ft | 4 kts | 251° |
| 2026-05-06 08:15 | 50.04074 | 8.54558 | 359 ft | 4 kts | 265° |
| 2026-05-06 08:15 | 50.04076 | 8.54592 | 359 ft | 4 kts | 262° |
| 2026-05-06 08:16 | 50.04083 | 8.54621 | 364 ft | 4 kts | 192° |
| 2026-05-06 08:16 | 50.04107 | 8.54615 | 363 ft | 4 kts | 159° |
| 2026-05-06 08:16 | 50.04096 | 8.54621 | 364 ft | 4 kts | 159° |
| 2026-05-06 08:16 | 50.04070 | 8.54636 | 362 ft | 4 kts | 159° |
| 2026-05-06 08:17 | 50.04046 | 8.54651 | 361 ft | 4 kts | 160° |
| 2026-05-06 08:17 | 50.04031 | 8.54659 | 358 ft | 1 kts | 160° |
| 2026-05-06 08:20 | 50.04026 | 8.54662 | 356 ft | 2 kts | 160° |
| 2026-05-06 08:20 | 50.03992 | 8.54682 | 361 ft | 7 kts | 160° |
| 2026-05-06 08:20 | 50.03949 | 8.54686 | 360 ft | 6 kts | 207° |
| 2026-05-06 08:20 | 50.03925 | 8.54626 | 362 ft | 7 kts | 248° |
| 2026-05-06 08:21 | 50.03906 | 8.54545 | 360 ft | 9 kts | 250° |
| 2026-05-06 08:21 | 50.03882 | 8.54446 | 355 ft | 11 kts | 250° |
| 2026-05-06 08:21 | 50.03846 | 8.54341 | 353 ft | 11 kts | 229° |
| 2026-05-06 08:21 | 50.03803 | 8.54237 | 356 ft | 12 kts | 249° |
| 2026-05-06 08:22 | 50.03774 | 8.54114 | 358 ft | 13 kts | 249° |
| 2026-05-06 08:22 | 50.03742 | 8.53982 | 355 ft | 13 kts | 249° |
| 2026-05-06 08:22 | 50.03708 | 8.53845 | 353 ft | 14 kts | 250° |
| 2026-05-06 08:22 | 50.03675 | 8.53700 | 354 ft | 15 kts | 250° |
| 2026-05-06 08:23 | 50.03636 | 8.53554 | 352 ft | 15 kts | 248° |
| 2026-05-06 08:23 | 50.03602 | 8.53406 | 356 ft | 15 kts | 250° |
| 2026-05-06 08:23 | 50.03566 | 8.53259 | 353 ft | 15 kts | 249° |
| 2026-05-06 08:23 | 50.03531 | 8.53111 | 351 ft | 15 kts | 249° |
| 2026-05-06 08:24 | 50.03495 | 8.52963 | 351 ft | 15 kts | 249° |
| 2026-05-06 08:24 | 50.03456 | 8.52818 | 337 ft | 15 kts | 246° |
| 2026-05-06 08:24 | 50.03419 | 8.52671 | 335 ft | 14 kts | 250° |
| 2026-05-06 08:24 | 50.03382 | 8.52598 | 337 ft | 8 kts | 199° |
| 2026-05-06 08:25 | 50.03312 | 8.52594 | 337 ft | 21 kts | 180° |
| 2026-05-06 08:25 | 50.02927 | 8.52598 | 339 ft | 96 kts | 180° |
| 2026-05-06 08:25 | 50.02008 | 8.52608 | 353 ft | 164 kts | 179° |
| 2026-05-06 08:25 | 50.00813 | 8.52648 | 954 ft | 171 kts | 180° |
| 2026-05-06 08:26 | 49.99600 | 8.52684 | 1780 ft | 177 kts | 182° |
| 2026-05-06 08:26 | 49.98360 | 8.52715 | 2660 ft | 179 kts | 184° |
| 2026-05-06 08:26 | 49.97124 | 8.52745 | 3598 ft | 176 kts | 183° |
| 2026-05-06 08:26 | 49.95876 | 8.52771 | 4421 ft | 183 kts | 183° |
| 2026-05-06 08:27 | 49.94596 | 8.52884 | 5231 ft | 190 kts | 169° |
| 2026-05-06 08:27 | 49.93378 | 8.54112 | 5577 ft | 232 kts | 130° |
| 2026-05-06 08:27 | 49.92732 | 8.56475 | 6355 ft | 245 kts | 111° |
| 2026-05-06 08:27 | 49.92197 | 8.59027 | 7321 ft | 245 kts | 107° |
| 2026-05-06 08:28 | 49.92078 | 8.61648 | 8377 ft | 253 kts | 84° |
| 2026-05-06 08:28 | 49.92398 | 8.64489 | 8845 ft | 282 kts | 82° |
| 2026-05-06 08:28 | 49.92698 | 8.67620 | 9585 ft | 298 kts | 85° |
| 2026-05-06 08:28 | 49.92847 | 8.70817 | 10585 ft | 299 kts | 98° |
| 2026-05-06 08:29 | 49.92214 | 8.73959 | 11117 ft | 318 kts | 124° |
| 2026-05-06 08:29 | 49.90661 | 8.76531 | 11438 ft | 339 kts | 147° |
| 2026-05-06 08:29 | 49.88665 | 8.78478 | 11773 ft | 365 kts | 154° |
| 2026-05-06 08:29 | 49.86511 | 8.80471 | 12898 ft | 359 kts | 145° |
| 2026-05-06 08:30 | 49.84867 | 8.83488 | 13785 ft | 375 kts | 121° |
| 2026-05-06 08:30 | 49.83741 | 8.87181 | 14472 ft | 385 kts | 116° |
| 2026-05-06 08:30 | 49.82623 | 8.90992 | 15424 ft | 390 kts | 118° |
| 2026-05-06 08:30 | 49.81414 | 8.94752 | 16577 ft | 391 kts | 120° |
| 2026-05-06 08:31 | 49.80120 | 8.98470 | 17662 ft | 395 kts | 121° |
| 2026-05-06 08:31 | 49.78761 | 9.02212 | 18543 ft | 401 kts | 122° |
| 2026-05-06 08:31 | 49.77369 | 9.06002 | 19357 ft | 408 kts | 122° |
| 2026-05-06 08:31 | 49.76017 | 9.09890 | 20124 ft | 413 kts | 116° |
| 2026-05-06 08:32 | 49.75141 | 9.14200 | 20786 ft | 427 kts | 105° |
| 2026-05-06 08:32 | 49.74519 | 9.18725 | 21588 ft | 433 kts | 104° |
| 2026-05-06 08:32 | 49.73875 | 9.23301 | 22431 ft | 438 kts | 105° |
| 2026-05-06 08:32 | 49.73179 | 9.27905 | 23253 ft | 443 kts | 106° |
| 2026-05-06 08:33 | 49.72443 | 9.32552 | 23917 ft | 449 kts | 107° |
| 2026-05-06 08:33 | 49.71680 | 9.37260 | 24602 ft | 453 kts | 108° |
| 2026-05-06 08:33 | 49.70902 | 9.42001 | 25314 ft | 457 kts | 108° |
| 2026-05-06 08:33 | 49.70115 | 9.46786 | 26004 ft | 461 kts | 108° |
| 2026-05-06 08:34 | 49.69320 | 9.51612 | 26658 ft | 466 kts | 109° |
| 2026-05-06 08:34 | 49.67721 | 9.61325 | 28367 ft | 465 kts | 109° |
| 2026-05-06 08:34 | 49.67102 | 9.66211 | 29233 ft | 469 kts | 99° |
| 2026-05-06 08:35 | 49.67379 | 9.71278 | 29987 ft | 481 kts | 79° |
| 2026-05-06 08:35 | 49.68360 | 9.76219 | 30593 ft | 483 kts | 76° |
| 2026-05-06 08:35 | 49.69358 | 9.81196 | 30818 ft | 487 kts | 77° |
| 2026-05-06 08:36 | 49.71163 | 9.91217 | 30784 ft | 479 kts | 79° |
| 2026-05-06 08:36 | 49.72219 | 9.96028 | 30781 ft | 483 kts | 66° |
| 2026-05-06 08:36 | 49.74050 | 10.00474 | 30798 ft | 486 kts | 55° |
| 2026-05-06 08:37 | 49.78134 | 10.08828 | 30803 ft | 494 kts | 54° |
| 2026-05-06 08:37 | 49.82236 | 10.17401 | 30799 ft | 497 kts | 55° |
| 2026-05-06 08:38 | 49.86217 | 10.26016 | 30778 ft | 487 kts | 56° |
| 2026-05-06 08:38 | 49.90131 | 10.34595 | 30786 ft | 488 kts | 56° |
| 2026-05-06 08:39 | 49.94052 | 10.43206 | 30789 ft | 489 kts | 56° |
| 2026-05-06 08:39 | 49.97979 | 10.51842 | 30790 ft | 490 kts | 56° |
| 2026-05-06 08:40 | 50.01909 | 10.60511 | 30778 ft | 491 kts | 56° |
| 2026-05-06 08:40 | 50.05533 | 10.69421 | 30771 ft | 483 kts | 72° |
| 2026-05-06 08:40 | 50.06255 | 10.74467 | 30784 ft | 475 kts | 90° |
| 2026-05-06 08:41 | 50.06127 | 10.79552 | 30785 ft | 467 kts | 105° |
| 2026-05-06 08:41 | 50.04223 | 10.89028 | 30788 ft | 460 kts | 115° |
| 2026-05-06 08:42 | 50.02128 | 10.98487 | 30788 ft | 465 kts | 114° |
| 2026-05-06 08:42 | 50.00080 | 11.08074 | 30773 ft | 469 kts | 114° |
| 2026-05-06 08:43 | 49.98045 | 11.17696 | 30787 ft | 469 kts | 114° |
| 2026-05-06 08:43 | 49.96000 | 11.27281 | 30783 ft | 467 kts | 114° |
| 2026-05-06 08:44 | 49.93953 | 11.36833 | 30794 ft | 465 kts | 114° |
| 2026-05-06 08:44 | 49.91990 | 11.46399 | 30781 ft | 465 kts | 111° |
| 2026-05-06 08:45 | 49.90303 | 11.56071 | 30790 ft | 464 kts | 110° |
| 2026-05-06 08:45 | 49.88567 | 11.65674 | 30798 ft | 463 kts | 110° |
| 2026-05-06 08:46 | 49.87424 | 11.75563 | 30807 ft | 468 kts | 102° |
| 2026-05-06 08:46 | 49.86751 | 11.83896 | 30803 ft | 469 kts | 102° |
| 2026-05-06 08:47 | 49.85885 | 11.93925 | 30796 ft | 470 kts | 103° |
| 2026-05-06 08:47 | 49.84978 | 12.03959 | 30804 ft | 471 kts | 103° |
| 2026-05-06 08:48 | 49.84048 | 12.14016 | 30806 ft | 472 kts | 103° |
| 2026-05-06 08:48 | 49.83114 | 12.24076 | 30807 ft | 472 kts | 103° |
| 2026-05-06 08:49 | 49.82193 | 12.34142 | 30787 ft | 472 kts | 103° |
| 2026-05-06 08:49 | 49.81266 | 12.44193 | 30816 ft | 471 kts | 104° |
| 2026-05-06 08:50 | 49.79629 | 12.53947 | 30870 ft | 475 kts | 113° |
| 2026-05-06 08:50 | 49.78611 | 12.58884 | 30997 ft | 488 kts | 113° |
| 2026-05-06 08:50 | 49.77566 | 12.63931 | 31249 ft | 497 kts | 113° |
| 2026-05-06 08:50 | 49.76512 | 12.69063 | 31592 ft | 503 kts | 113° |
| 2026-05-06 08:51 | 49.75460 | 12.74232 | 32024 ft | 505 kts | 113° |
| 2026-05-06 08:51 | 49.74411 | 12.79425 | 32562 ft | 506 kts | 114° |
| 2026-05-06 08:51 | 49.73366 | 12.84611 | 33170 ft | 504 kts | 114° |
| 2026-05-06 08:51 | 49.72326 | 12.89773 | 33813 ft | 502 kts | 114° |
| 2026-05-06 08:52 | 49.71284 | 12.94924 | 34313 ft | 502 kts | 114° |
| 2026-05-06 08:52 | 49.70242 | 13.00055 | 34768 ft | 501 kts | 114° |
| 2026-05-06 08:52 | 49.69194 | 13.05188 | 35226 ft | 501 kts | 113° |
| 2026-05-06 08:52 | 49.68147 | 13.10309 | 35692 ft | 500 kts | 113° |
| 2026-05-06 08:53 | 49.67098 | 13.15420 | 36164 ft | 499 kts | 113° |
| 2026-05-06 08:53 | 49.66045 | 13.20533 | 36562 ft | 499 kts | 112° |
| 2026-05-06 08:53 | 49.64990 | 13.25641 | 36876 ft | 502 kts | 112° |
| 2026-05-06 08:54 | 49.62852 | 13.35953 | 36832 ft | 503 kts | 112° |
| 2026-05-06 08:54 | 49.60732 | 13.46161 | 36823 ft | 497 kts | 112° |
| 2026-05-06 08:54 | 49.59668 | 13.51254 | 36934 ft | 501 kts | 112° |
| 2026-05-06 08:55 | 49.58595 | 13.56366 | 37286 ft | 501 kts | 112° |
| 2026-05-06 08:55 | 49.57533 | 13.61418 | 37593 ft | 503 kts | 112° |
| 2026-05-06 08:55 | 49.56454 | 13.66543 | 37978 ft | 503 kts | 112° |
| 2026-05-06 08:55 | 49.55373 | 13.71663 | 38442 ft | 501 kts | 112° |
| 2026-05-06 08:56 | 49.54296 | 13.76758 | 38808 ft | 500 kts | 112° |
| 2026-05-06 08:56 | 49.52117 | 13.87013 | 38831 ft | 505 kts | 112° |
| 2026-05-06 08:57 | 49.49954 | 13.97154 | 38824 ft | 499 kts | 112° |
| 2026-05-06 08:57 | 49.47791 | 14.07245 | 38835 ft | 495 kts | 112° |
| 2026-05-06 08:58 | 49.45624 | 14.17293 | 38841 ft | 495 kts | 112° |
| 2026-05-06 08:58 | 49.43450 | 14.27321 | 38844 ft | 495 kts | 112° |
| 2026-05-06 08:59 | 49.41264 | 14.37357 | 38843 ft | 496 kts | 112° |
| 2026-05-06 08:59 | 49.39068 | 14.47398 | 38823 ft | 497 kts | 113° |
| 2026-05-06 09:00 | 49.36858 | 14.57449 | 38830 ft | 497 kts | 113° |
| 2026-05-06 09:00 | 49.34637 | 14.67503 | 38839 ft | 498 kts | 113° |
| 2026-05-06 09:01 | 49.32402 | 14.77570 | 38837 ft | 499 kts | 113° |